createdAt,value
2023-09-10T00:00:05.155Z,100838.17
2023-09-10T00:02:33.050Z,100836.98
2023-09-10T00:05:00.706Z,100836.05
2023-09-10T00:07:29.010Z,100836.27
2023-09-10T00:09:56.797Z,100836.55
2023-09-10T00:12:24.714Z,100839.29
2023-09-10T00:14:52.494Z,100844.88
2023-09-10T00:17:20.259Z,100845.45
2023-09-10T00:19:48.345Z,100846.11
2023-09-10T00:22:16.160Z,100848.35
2023-09-10T00:24:44.110Z,100854.70
2023-09-10T00:27:11.902Z,100851.73
2023-09-10T00:29:39.676Z,100854.84
2023-09-10T00:32:07.494Z,100856.60
2023-09-10T00:34:35.840Z,100857.16
2023-09-10T00:37:03.911Z,100856.27
2023-09-10T00:39:32.759Z,100860.35
2023-09-10T00:42:00.526Z,100859.25
2023-09-10T00:44:28.460Z,100857.29
2023-09-10T00:46:57.417Z,100860.80
2023-09-10T00:49:25.419Z,100866.29
2023-09-10T00:51:53.289Z,100867.69
2023-09-10T00:54:21.978Z,100867.80
2023-09-10T00:56:49.745Z,100864.84
2023-09-10T00:59:17.775Z,100864.42
2023-09-10T01:01:45.919Z,100865.12
2023-09-10T01:04:13.962Z,100863.35
2023-09-10T01:06:42.519Z,100861.11
2023-09-10T01:09:10.379Z,100863.74
2023-09-10T01:11:44.724Z,100864.02
2023-09-10T01:14:24.477Z,100866.94
2023-09-10T01:16:55.158Z,100864.98
2023-09-10T01:20:11.354Z,100869.39
2023-09-10T01:22:58.327Z,100870.26
2023-09-10T01:25:26.056Z,100869.95
2023-09-10T01:27:53.825Z,100872.80
2023-09-10T01:30:21.794Z,100873.86
2023-09-10T01:32:50.764Z,100874.34
2023-09-10T01:35:34.408Z,100872.95
2023-09-10T01:38:17.855Z,100871.66
2023-09-10T01:41:01.428Z,100874.20
2023-09-10T01:43:29.998Z,100873.82
2023-09-10T01:45:57.850Z,100871.77
2023-09-10T01:48:27.826Z,100872.62
2023-09-10T01:50:56.101Z,100873.35
2023-09-10T01:53:24.150Z,100875.27
2023-09-10T01:55:52.354Z,100876.48
2023-09-10T01:58:20.375Z,100877.54
2023-09-10T02:00:48.143Z,100877.05
2023-09-10T02:03:15.967Z,100876.73
2023-09-10T02:05:44.207Z,100871.01
2023-09-10T02:08:12.026Z,100870.14
2023-09-10T02:10:40.084Z,100869.94
2023-09-10T02:16:33.342Z,100862.70
2023-09-10T02:19:01.180Z,100860.28
2023-09-10T02:21:28.798Z,100860.98
2023-09-10T02:23:56.433Z,100860.60
2023-09-10T02:26:24.217Z,100861.59
2023-09-10T02:28:53.422Z,100860.16
2023-09-10T02:31:21.775Z,100862.67
2023-09-10T02:33:49.646Z,100861.14
2023-09-10T02:36:17.419Z,100862.16
2023-09-10T02:38:45.363Z,100862.98
2023-09-10T02:41:14.481Z,100862.53
2023-09-10T02:43:42.299Z,100860.29
2023-09-10T02:46:10.130Z,100863.65
2023-09-10T02:48:39.051Z,100864.13
2023-09-10T02:51:07.084Z,100867.67
2023-09-10T02:53:35.055Z,100867.07
2023-09-10T02:56:03.120Z,100866.65
2023-09-10T02:58:31.154Z,100869.46
2023-09-10T03:01:06.906Z,100868.14
2023-09-10T03:03:35.317Z,100870.49
2023-09-10T03:06:03.244Z,100868.06
2023-09-10T03:08:37.450Z,100867.79
2023-09-10T03:11:06.887Z,100870.95
2023-09-10T03:13:44.660Z,100872.68
2023-09-10T03:16:12.895Z,100874.42
2023-09-10T03:18:41.536Z,100874.34
2023-09-10T03:21:09.651Z,100877.31
2023-09-10T03:23:37.412Z,100875.60
2023-09-10T03:26:04.959Z,100873.02
2023-09-10T03:28:33.150Z,100875.20
2023-09-10T03:31:01.318Z,100875.04
2023-09-10T03:33:29.344Z,100871.50
2023-09-10T03:35:57.388Z,100878.02
2023-09-10T03:38:26.933Z,100878.52
2023-09-10T03:40:55.143Z,100878.78
2023-09-10T03:43:25.079Z,100880.08
2023-09-10T03:45:53.740Z,100879.81
2023-09-10T03:48:22.060Z,100879.88
2023-09-10T03:50:50.414Z,100878.02
2023-09-10T03:53:18.844Z,100877.80
2023-09-10T03:55:46.941Z,100874.96
2023-09-10T03:58:15.437Z,100875.49
2023-09-10T04:00:43.428Z,100876.36
2023-09-10T04:03:11.734Z,100876.35
2023-09-10T04:05:39.656Z,100878.91
2023-09-10T04:08:07.561Z,100876.09
2023-09-10T04:10:35.263Z,100875.27
2023-09-10T04:13:02.921Z,100876.30
2023-09-10T04:15:33.111Z,100880.50
2023-09-10T04:18:00.997Z,100877.15
2023-09-10T04:20:30.286Z,100876.70
2023-09-10T04:22:58.106Z,100878.56
2023-09-10T04:25:26.420Z,100877.56
2023-09-10T04:27:54.583Z,100876.36
2023-09-10T04:30:22.645Z,100876.15
2023-09-10T04:32:50.622Z,100877.29
2023-09-10T04:35:19.052Z,100874.36
2023-09-10T04:37:46.988Z,100872.36
2023-09-10T04:40:15.144Z,100871.20
2023-09-10T04:42:42.908Z,100873.42
2023-09-10T04:45:11.494Z,100872.61
2023-09-10T04:47:39.671Z,100874.94
2023-09-10T04:50:09.862Z,100863.16
2023-09-10T04:52:39.362Z,100865.60
2023-09-10T04:55:07.805Z,100868.42
2023-09-10T04:57:36.155Z,100869.22
2023-09-10T05:00:05.372Z,100871.68
2023-09-10T05:02:33.567Z,100869.48
2023-09-10T05:05:01.825Z,100870.40
2023-09-10T05:07:29.668Z,100868.80
2023-09-10T05:12:48.955Z,100866.88
2023-09-10T05:15:16.929Z,100866.65
2023-09-10T05:17:50.206Z,100869.80
2023-09-10T05:20:18.459Z,100871.79
2023-09-10T05:22:47.099Z,100874.05
2023-09-10T05:25:14.953Z,100873.10
2023-09-10T05:27:43.536Z,100879.64
2023-09-10T05:30:11.908Z,100876.31
2023-09-10T05:32:39.787Z,100877.77
2023-09-10T05:35:10.661Z,100877.21
2023-09-10T05:37:42.838Z,100878.27
2023-09-10T05:40:12.291Z,100884.14
2023-09-10T05:42:42.433Z,100889.50
2023-09-10T05:45:20.316Z,100889.85
2023-09-10T05:47:56.721Z,100890.58
2023-09-10T05:50:25.917Z,100894.10
2023-09-10T05:52:57.527Z,100895.23
2023-09-10T05:55:25.605Z,100900.14
2023-09-10T05:57:55.051Z,100899.77
2023-09-10T06:00:23.511Z,100902.14
2023-09-10T06:02:53.039Z,100901.59
2023-09-10T06:05:20.980Z,100902.36
2023-09-10T06:07:49.544Z,100904.27
2023-09-10T06:10:17.408Z,100903.59
2023-09-10T06:12:46.016Z,100902.32
2023-09-10T06:15:13.979Z,100907.79
2023-09-10T06:17:41.865Z,100908.39
2023-09-10T06:20:13.278Z,100905.73
2023-09-10T06:22:41.197Z,100910.86
2023-09-10T06:33:00.064Z,100919.70
2023-09-10T06:35:28.542Z,100922.38
2023-09-10T06:37:56.540Z,100919.66
2023-09-10T06:40:30.436Z,100920.40
2023-09-10T06:42:58.903Z,100920.48
2023-09-10T06:45:52.892Z,100923.61
2023-09-10T06:48:22.440Z,100921.48
2023-09-10T06:50:53.845Z,100923.12
2023-09-10T06:53:21.557Z,100918.45
2023-09-10T06:55:52.289Z,100923.66
2023-09-10T06:58:20.103Z,100921.38
2023-09-10T07:00:47.869Z,100919.88
2023-09-10T07:03:15.750Z,100919.11
2023-09-10T07:05:44.282Z,100914.44
2023-09-10T07:08:12.417Z,100917.39
2023-09-10T07:10:40.648Z,100914.27
2023-09-10T07:13:09.434Z,100914.80
2023-09-10T07:15:38.227Z,100912.20
2023-09-10T07:18:07.691Z,100912.42
2023-09-10T07:20:36.010Z,100910.98
2023-09-10T07:23:04.728Z,100912.23
2023-09-10T07:25:32.751Z,100916.53
2023-09-10T07:28:00.762Z,100914.38
2023-09-10T07:30:29.052Z,100916.96
2023-09-10T07:32:56.916Z,100916.06
2023-09-10T07:35:25.178Z,100915.41
2023-09-10T07:37:54.544Z,100915.20
2023-09-10T07:40:22.409Z,100916.05
2023-09-10T07:42:51.636Z,100910.48
2023-09-10T07:45:21.117Z,100912.93
2023-09-10T07:47:49.067Z,100910.09
2023-09-10T07:50:19.456Z,100907.92
2023-09-10T07:52:48.139Z,100907.11
2023-09-10T07:55:18.833Z,100906.67
2023-09-10T07:57:46.696Z,100903.65
2023-09-10T08:00:18.261Z,100908.09
2023-09-10T08:02:47.565Z,100905.34
2023-09-10T08:05:15.789Z,100908.30
2023-09-10T08:07:46.362Z,100907.65
2023-09-10T08:10:14.130Z,100904.29
2023-09-10T08:12:41.948Z,100905.01
2023-09-10T08:15:10.151Z,100903.69
2023-09-10T08:17:38.112Z,100900.54
2023-09-10T08:20:08.496Z,100898.76
2023-09-10T08:22:39.296Z,100894.31
2023-09-10T08:25:09.567Z,100893.54
2023-09-10T08:27:38.098Z,100891.00
2023-09-10T08:30:10.452Z,100889.92
2023-09-10T08:32:41.593Z,100892.67
2023-09-10T08:35:09.723Z,100889.32
2023-09-10T08:38:01.509Z,100884.45
2023-09-10T08:40:29.191Z,100884.59
2023-09-10T08:43:10.523Z,100887.06
2023-09-10T08:45:38.400Z,100887.15
2023-09-10T08:48:06.352Z,100887.27
2023-09-10T08:50:34.841Z,100883.73
2023-09-10T08:53:08.945Z,100878.91
2023-09-10T08:55:37.100Z,100875.48
2023-09-10T08:58:05.020Z,100879.11
2023-09-10T09:00:32.869Z,100876.58
2023-09-10T09:03:02.270Z,100872.79
2023-09-10T09:05:30.412Z,100874.11
2023-09-10T09:08:04.763Z,100869.47
2023-09-10T09:10:32.956Z,100870.50
2023-09-10T09:13:05.049Z,100869.97
2023-09-10T09:15:33.932Z,100867.91
2023-09-10T09:18:01.969Z,100865.83
2023-09-10T09:20:30.079Z,100863.82
2023-09-10T09:23:05.683Z,100860.94
2023-09-10T09:25:36.457Z,100862.11
2023-09-10T09:28:04.632Z,100858.64
2023-09-10T09:30:32.875Z,100862.14
2023-09-10T09:33:00.860Z,100855.73
2023-09-10T09:35:30.376Z,100851.13
2023-09-10T09:37:59.175Z,100853.50
2023-09-10T09:40:27.656Z,100850.15
2023-09-10T09:43:13.159Z,100851.10
2023-09-10T09:45:50.601Z,100851.26
2023-09-10T09:48:18.953Z,100848.27
2023-09-10T09:50:48.208Z,100844.30
2023-09-10T09:53:16.458Z,100847.57
2023-09-10T09:55:49.305Z,100841.27
2023-09-10T09:58:19.866Z,100839.98
2023-09-10T10:00:47.981Z,100840.41
2023-09-10T10:03:22.571Z,100837.57
2023-09-10T10:05:54.383Z,100838.03
2023-09-10T10:08:28.604Z,100837.04
2023-09-10T10:10:56.323Z,100830.83
2023-09-10T10:13:25.328Z,100827.70
2023-09-10T10:15:54.497Z,100828.31
2023-09-10T10:18:32.151Z,100830.33
2023-09-10T10:21:19.849Z,100826.61
2023-09-10T10:24:31.303Z,100815.41
2023-09-10T10:27:01.670Z,100819.94
2023-09-10T10:29:32.595Z,100815.75
2023-09-10T10:32:04.446Z,100814.82
2023-09-10T10:34:39.475Z,100816.04
2023-09-10T10:37:07.058Z,100813.44
2023-09-10T10:40:03.269Z,100809.53
2023-09-10T10:42:37.203Z,100805.74
2023-09-10T10:45:07.346Z,100802.91
2023-09-10T10:47:41.780Z,100796.88
2023-09-10T10:50:12.695Z,100796.57
2023-09-10T10:52:55.575Z,100790.89
2023-09-10T10:55:24.491Z,100787.05
2023-09-10T10:57:54.002Z,100783.90
2023-09-10T11:00:22.267Z,100780.19
2023-09-10T11:02:51.252Z,100779.83
2023-09-10T11:05:19.979Z,100776.38
2023-09-10T11:07:50.220Z,100769.39
2023-09-10T11:10:27.445Z,100764.45
2023-09-10T11:13:14.585Z,100764.89
2023-09-10T11:16:05.965Z,100761.56
2023-09-10T11:18:43.118Z,100755.42
2023-09-10T11:21:14.867Z,100758.59
2023-09-10T11:24:17.796Z,100751.48
2023-09-10T11:26:45.776Z,100749.23
2023-09-10T11:29:17.663Z,100748.05
2023-09-10T11:31:49.567Z,100748.52
2023-09-10T11:34:23.398Z,100746.58
2023-09-10T11:36:56.365Z,100744.35
2023-09-10T11:39:30.854Z,100738.02
2023-09-10T11:42:00.046Z,100739.64
2023-09-10T11:44:27.843Z,100736.10
2023-09-10T11:46:56.746Z,100728.61
2023-09-10T11:49:25.799Z,100727.36
2023-09-10T11:51:57.897Z,100722.75
2023-09-10T11:54:26.626Z,100720.33
2023-09-10T11:56:57.170Z,100720.86
2023-09-10T11:59:27.489Z,100717.66
2023-09-10T12:01:55.917Z,100713.18
2023-09-10T12:04:33.194Z,100714.36
2023-09-10T12:07:03.150Z,100711.71
2023-09-10T12:09:32.644Z,100714.35
2023-09-10T12:12:31.682Z,100709.05
2023-09-10T12:14:59.835Z,100704.47
2023-09-10T12:17:28.348Z,100699.30
2023-09-10T12:19:56.316Z,100696.88
2023-09-10T12:22:24.778Z,100699.40
2023-09-10T12:24:53.149Z,100692.30
2023-09-10T12:27:21.332Z,100688.31
2023-09-10T12:29:52.804Z,100691.31
2023-09-10T12:32:23.684Z,100685.86
2023-09-10T12:34:51.954Z,100686.45
2023-09-10T12:37:19.577Z,100682.61
2023-09-10T12:39:47.400Z,100680.53
2023-09-10T12:42:15.161Z,100675.17
2023-09-10T12:44:44.097Z,100676.22
2023-09-10T12:47:14.426Z,100670.38
2023-09-10T12:49:42.549Z,100669.98
2023-09-10T12:52:10.472Z,100674.53
2023-09-10T12:54:41.267Z,100672.34
2023-09-10T12:57:11.727Z,100669.10
2023-09-10T12:59:45.328Z,100668.02
2023-09-10T13:02:13.368Z,100664.34
2023-09-10T13:04:41.807Z,100660.86
2023-09-10T13:07:13.609Z,100661.05
2023-09-10T13:09:42.100Z,100660.61
2023-09-10T13:12:09.925Z,100658.48
2023-09-10T13:14:41.183Z,100658.61
2023-09-10T13:17:11.936Z,100654.80
2023-09-10T13:19:42.888Z,100655.68
2023-09-10T13:22:10.672Z,100647.98
2023-09-10T13:24:39.929Z,100646.83
2023-09-10T13:27:08.091Z,100647.40
2023-09-10T13:29:36.154Z,100649.27
2023-09-10T13:32:06.331Z,100644.67
2023-09-10T13:34:39.757Z,100644.61
2023-09-10T13:37:10.207Z,100641.95
2023-09-10T13:39:47.239Z,100637.30
2023-09-10T13:42:17.083Z,100637.21
2023-09-10T13:44:44.855Z,100639.15
2023-09-10T13:47:14.761Z,100636.18
2023-09-10T13:49:42.646Z,100636.34
2023-09-10T13:52:13.893Z,100638.17
2023-09-10T13:54:42.690Z,100634.81
2023-09-10T13:57:13.628Z,100633.43
2023-09-10T13:59:41.611Z,100633.92
2023-09-10T14:02:09.548Z,100627.39
2023-09-10T14:04:37.240Z,100629.85
2023-09-10T14:07:05.224Z,100625.11
2023-09-10T14:09:33.484Z,100626.98
2023-09-10T14:12:01.608Z,100623.33
2023-09-10T14:14:36.033Z,100621.34
2023-09-10T14:17:06.923Z,100618.92
2023-09-10T14:19:37.532Z,100617.14
2023-09-10T14:22:09.006Z,100615.84
2023-09-10T14:24:36.876Z,100612.85
2023-09-10T14:27:05.576Z,100611.61
2023-09-10T14:29:40.789Z,100611.73
2023-09-10T14:32:08.856Z,100610.20
2023-09-10T14:34:39.345Z,100605.69
2023-09-10T14:37:08.193Z,100607.23
2023-09-10T14:39:39.080Z,100603.66
2023-09-10T14:42:07.174Z,100602.95
2023-09-10T14:44:44.193Z,100600.39
2023-09-10T14:47:12.012Z,100594.46
2023-09-10T14:49:42.833Z,100598.10
2023-09-10T14:52:13.007Z,100599.03
2023-09-10T14:54:41.314Z,100593.64
2023-09-10T14:57:13.781Z,100590.59
2023-09-10T14:59:42.089Z,100586.79
2023-09-10T15:02:10.305Z,100583.61
2023-09-10T15:04:38.306Z,100579.27
2023-09-10T15:07:06.157Z,100578.14
2023-09-10T15:09:34.037Z,100576.65
2023-09-10T15:12:02.246Z,100572.69
2023-09-10T15:14:33.020Z,100566.84
2023-09-10T15:17:01.297Z,100568.80
2023-09-10T15:19:32.388Z,100570.09
2023-09-10T15:22:03.243Z,100573.23
2023-09-10T15:24:33.591Z,100571.13
2023-09-10T15:27:01.604Z,100572.95
2023-09-10T15:29:38.704Z,100579.00
2023-09-10T15:32:06.904Z,100578.99
2023-09-10T15:34:36.047Z,100577.69
2023-09-10T15:37:04.025Z,100576.79
2023-09-10T15:39:32.868Z,100579.47
2023-09-10T15:42:00.688Z,100580.91
2023-09-10T15:44:28.434Z,100582.34
2023-09-10T15:46:56.722Z,100578.71
2023-09-10T15:49:27.147Z,100578.22
2023-09-10T15:54:25.317Z,100581.11
2023-09-10T15:57:09.995Z,100578.98
2023-09-10T15:59:38.201Z,100583.02
2023-09-10T16:02:22.885Z,100578.52
2023-09-10T16:04:52.687Z,100576.02
2023-09-10T16:07:20.924Z,100580.16
2023-09-10T16:09:51.740Z,100581.21
2023-09-10T16:12:20.074Z,100584.83
2023-09-10T16:14:47.696Z,100585.08
2023-09-10T16:17:15.442Z,100583.25
2023-09-10T16:19:43.207Z,100585.56
2023-09-10T16:22:11.029Z,100587.05
2023-09-10T16:24:40.338Z,100587.31
2023-09-10T16:27:08.086Z,100589.90
2023-09-10T16:29:35.813Z,100583.05
2023-09-10T16:32:04.296Z,100587.35
2023-09-10T16:34:32.157Z,100585.26
2023-09-10T16:37:00.680Z,100583.59
2023-09-10T16:39:28.359Z,100584.00
2023-09-10T16:41:56.177Z,100585.99
2023-09-10T16:44:30.135Z,100589.01
2023-09-10T16:46:58.011Z,100585.05
2023-09-10T16:49:26.621Z,100589.90
2023-09-10T16:51:54.300Z,100589.32
2023-09-10T16:54:24.309Z,100589.59
2023-09-10T16:56:52.307Z,100591.87
2023-09-10T16:59:20.395Z,100589.10
2023-09-10T17:01:49.009Z,100591.48
2023-09-10T17:04:16.997Z,100590.59
2023-09-10T17:06:46.272Z,100592.42
2023-09-10T17:09:14.519Z,100594.71
2023-09-10T17:11:42.606Z,100595.32
2023-09-10T17:14:10.696Z,100596.88
2023-09-10T17:16:38.748Z,100601.52
2023-09-10T17:19:06.912Z,100605.70
2023-09-10T17:21:36.932Z,100611.59
2023-09-10T17:24:05.486Z,100611.02
2023-09-10T17:26:33.228Z,100610.23
2023-09-10T17:29:03.869Z,100611.04
2023-09-10T17:31:31.561Z,100613.95
2023-09-10T17:34:00.245Z,100611.16
2023-09-10T17:36:28.138Z,100616.45
2023-09-10T17:38:55.886Z,100614.96
2023-09-10T17:41:24.018Z,100623.32
2023-09-10T17:43:55.116Z,100622.52
2023-09-10T17:46:26.405Z,100619.64
2023-09-10T17:48:54.202Z,100620.23
2023-09-10T17:51:22.828Z,100618.88
2023-09-10T17:53:50.725Z,100620.75
2023-09-10T17:56:18.990Z,100620.38
2023-09-10T17:58:46.834Z,100618.16
2023-09-10T18:01:14.619Z,100620.52
2023-09-10T18:03:44.253Z,100617.29
2023-09-10T18:06:12.633Z,100617.28
2023-09-10T18:08:40.713Z,100620.77
2023-09-10T18:11:08.751Z,100616.36
2023-09-10T18:13:36.910Z,100614.95
2023-09-10T18:16:06.553Z,100614.36
2023-09-10T18:18:34.626Z,100613.64
2023-09-10T18:21:02.553Z,100610.48
2023-09-10T18:23:30.493Z,100608.52
2023-09-10T18:25:58.435Z,100613.31
2023-09-10T18:28:26.215Z,100612.85
2023-09-10T18:31:04.543Z,100610.30
2023-09-10T18:33:34.740Z,100612.25
2023-09-10T18:36:02.620Z,100610.67
2023-09-10T18:38:32.779Z,100610.84
2023-09-10T18:41:00.660Z,100607.07
2023-09-10T18:43:28.355Z,100606.14
2023-09-10T18:45:57.230Z,100603.94
2023-09-10T18:48:25.003Z,100604.91
2023-09-10T18:50:52.856Z,100603.67
2023-09-10T18:53:21.901Z,100607.50
2023-09-10T18:55:49.524Z,100607.77
2023-09-10T18:58:17.356Z,100612.85
2023-09-10T19:00:48.283Z,100610.77
2023-09-10T19:03:16.182Z,100613.50
2023-09-10T19:05:44.332Z,100613.66
2023-09-10T19:08:12.664Z,100616.60
2023-09-10T19:10:40.356Z,100617.85
2023-09-10T19:13:08.872Z,100617.13
2023-09-10T19:15:42.565Z,100617.98
2023-09-10T19:18:10.718Z,100615.56
2023-09-10T19:20:45.292Z,100615.69
2023-09-10T19:23:13.164Z,100614.23
2023-09-10T19:25:40.849Z,100614.43
2023-09-10T19:28:08.675Z,100611.94
2023-09-10T19:30:37.344Z,100613.14
2023-09-10T19:33:05.717Z,100615.95
2023-09-10T19:35:33.636Z,100615.17
2023-09-10T19:38:01.501Z,100611.15
2023-09-10T19:40:30.006Z,100611.48
2023-09-10T19:42:57.670Z,100611.93
2023-09-10T19:45:25.477Z,100612.95
2023-09-10T19:47:54.588Z,100609.10
2023-09-10T19:50:23.528Z,100606.27
2023-09-10T19:52:51.275Z,100610.89
2023-09-10T19:55:20.402Z,100607.66
2023-09-10T19:57:48.097Z,100604.34
2023-09-10T20:00:16.001Z,100604.65
2023-09-10T20:02:44.595Z,100602.19
2023-09-10T20:05:14.524Z,100599.50
2023-09-10T20:07:43.403Z,100598.77
2023-09-10T20:10:11.885Z,100596.58
2023-09-10T20:12:40.511Z,100596.20
2023-09-10T20:15:08.690Z,100591.98
2023-09-10T20:17:36.680Z,100593.25
2023-09-10T20:20:09.034Z,100591.23
2023-09-10T20:22:37.638Z,100591.04
2023-09-10T20:25:06.150Z,100589.27
2023-09-10T20:27:34.906Z,100589.63
2023-09-10T20:30:02.667Z,100593.59
2023-09-10T20:32:30.684Z,100589.27
2023-09-10T20:34:58.616Z,100588.25
2023-09-10T20:37:26.320Z,100589.43
2023-09-10T20:39:57.977Z,100590.09
2023-09-10T20:42:26.476Z,100592.22
2023-09-10T20:44:54.906Z,100589.45
2023-09-10T20:47:22.704Z,100590.16
2023-09-10T20:49:50.474Z,100592.31
2023-09-10T20:52:18.561Z,100593.98
2023-09-10T20:54:46.203Z,100588.96
2023-09-10T20:57:13.974Z,100586.19
2023-09-10T20:59:41.718Z,100584.54
2023-09-10T21:02:09.689Z,100582.05
2023-09-10T21:04:37.657Z,100581.48
2023-09-10T21:07:05.765Z,100579.14
2023-09-10T21:09:33.629Z,100582.30
2023-09-10T21:12:01.431Z,100582.23
2023-09-10T21:14:40.685Z,100581.98
2023-09-10T21:17:11.062Z,100583.27
2023-09-10T21:19:39.120Z,100585.00
2023-09-10T21:22:07.002Z,100585.30
2023-09-10T21:24:34.712Z,100583.04
2023-09-10T21:27:03.468Z,100579.81
2023-09-10T21:29:31.392Z,100577.98
2023-09-10T21:31:59.400Z,100581.94
2023-09-10T21:34:27.333Z,100577.05
2023-09-10T21:36:55.317Z,100575.55
2023-09-10T21:39:23.842Z,100575.40
2023-09-10T21:41:51.836Z,100575.42
2023-09-10T21:44:20.070Z,100575.15
2023-09-10T21:46:49.349Z,100579.03
2023-09-10T21:49:17.663Z,100574.96
2023-09-10T21:51:45.828Z,100575.03
2023-09-10T21:54:17.200Z,100575.65
2023-09-10T21:56:46.969Z,100573.81
2023-09-10T21:59:15.107Z,100572.02
2023-09-10T22:01:42.929Z,100575.54
2023-09-10T22:04:11.308Z,100576.19
2023-09-10T22:06:39.364Z,100573.36
2023-09-10T22:09:07.407Z,100571.13
2023-09-10T22:11:35.474Z,100568.99
2023-09-10T22:14:03.245Z,100571.35
2023-09-10T22:16:32.518Z,100570.08
2023-09-10T22:19:00.614Z,100571.14
2023-09-10T22:21:28.272Z,100571.98
2023-09-10T22:23:57.058Z,100569.77
2023-09-10T22:26:25.003Z,100571.73
2023-09-10T22:28:53.224Z,100572.12
2023-09-10T22:31:22.092Z,100571.36
2023-09-10T22:33:50.037Z,100571.40
2023-09-10T22:36:29.066Z,100568.67
2023-09-10T22:39:02.806Z,100567.09
2023-09-10T22:43:38.810Z,100567.34
2023-09-10T22:46:10.277Z,100568.04
2023-09-10T22:48:38.526Z,100568.41
2023-09-10T22:51:06.299Z,100564.54
2023-09-10T22:53:34.716Z,100563.59
2023-09-10T22:56:02.967Z,100560.13
2023-09-10T22:58:30.650Z,100561.11
2023-09-10T23:00:58.406Z,100564.67
2023-09-10T23:03:26.282Z,100552.58
2023-09-10T23:05:55.038Z,100552.04
2023-09-10T23:08:23.033Z,100550.70
2023-09-10T23:10:50.961Z,100550.59
2023-09-10T23:13:18.738Z,100552.20
2023-09-10T23:15:47.882Z,100548.27
2023-09-10T23:18:15.863Z,100550.52
2023-09-10T23:20:43.769Z,100550.61
2023-09-10T23:23:11.459Z,100554.39
2023-09-10T23:25:39.238Z,100554.84
2023-09-10T23:28:07.072Z,100551.59
2023-09-10T23:30:34.979Z,100550.67
2023-09-10T23:33:03.599Z,100554.36
2023-09-10T23:35:33.562Z,100550.41
2023-09-10T23:38:01.502Z,100550.26
2023-09-10T23:40:29.165Z,100552.95
2023-09-10T23:42:56.899Z,100552.69
2023-09-10T23:45:25.156Z,100551.66
2023-09-10T23:47:52.715Z,100550.05
2023-09-10T23:50:20.544Z,100552.01
2023-09-10T23:52:51.912Z,100554.32
2023-09-10T23:55:19.714Z,100554.84
2023-09-10T23:57:47.450Z,100551.77
